sensor_id;sensor_type;location;lat;lon;timestamp;temperature;humidity
36442;DHT22;64346;50.820;16.274;2022-11-13T00:01:14;7.80;99.90
36442;DHT22;64346;50.820;16.274;2022-11-13T00:03:44;7.70;99.90
36442;DHT22;64346;50.820;16.274;2022-11-13T00:06:12;7.60;99.90
36442;DHT22;64346;50.820;16.274;2022-11-13T00:08:41;7.60;99.90
36442;DHT22;64346;50.820;16.274;2022-11-13T00:11:13;7.70;99.90
36442;DHT22;64346;50.820;16.274;2022-11-13T00:13:41;7.80;99.90
36442;DHT22;64346;50.820;16.274;2022-11-13T00:16:17;7.90;99.90
36442;DHT22;64346;50.820;16.274;2022-11-13T00:18:45;8.00;99.90
36442;DHT22;64346;50.820;16.274;2022-11-13T00:21:15;8.00;99.90
36442;DHT22;64346;50.820;16.274;2022-11-13T00:23:43;8.00;99.90
36442;DHT22;64346;50.820;16.274;2022-11-13T00:26:19;8.00;99.90
36442;DHT22;64346;50.820;16.274;2022-11-13T00:28:50;7.80;99.90
36442;DHT22;64346;50.820;16.274;2022-11-13T00:31:18;7.50;99.90
36442;DHT22;64346;50.820;16.274;2022-11-13T00:33:45;7.10;99.90
36442;DHT22;64346;50.820;16.274;2022-11-13T00:36:36;6.80;99.90
36442;DHT22;64346;50.820;16.274;2022-11-13T00:39:03;6.50;99.90
36442;DHT22;64346;50.820;16.274;2022-11-13T00:41:32;6.30;99.90
36442;DHT22;64346;50.820;16.274;2022-11-13T00:44:00;6.30;99.90
36442;DHT22;64346;50.820;16.274;2022-11-13T00:46:27;6.20;99.90
36442;DHT22;64346;50.820;16.274;2022-11-13T00:48:56;6.20;99.90
36442;DHT22;64346;50.820;16.274;2022-11-13T00:51:29;6.30;99.90
36442;DHT22;64346;50.820;16.274;2022-11-13T00:53:58;6.30;99.90
36442;DHT22;64346;50.820;16.274;2022-11-13T00:56:28;6.40;99.90
36442;DHT22;64346;50.820;16.274;2022-11-13T00:58:55;6.40;99.90
36442;DHT22;64346;50.820;16.274;2022-11-13T01:01:25;6.50;99.90
36442;DHT22;64346;50.820;16.274;2022-11-13T01:03:52;6.40;99.90
36442;DHT22;64346;50.820;16.274;2022-11-13T01:06:24;6.50;99.90
36442;DHT22;64346;50.820;16.274;2022-11-13T01:08:58;6.60;99.90
36442;DHT22;64346;50.820;16.274;2022-11-13T01:11:29;6.70;99.90
36442;DHT22;64346;50.820;16.274;2022-11-13T01:13:56;6.80;99.90
36442;DHT22;64346;50.820;16.274;2022-11-13T01:16:27;6.80;99.90
36442;DHT22;64346;50.820;16.274;2022-11-13T01:18:55;6.90;99.90
36442;DHT22;64346;50.820;16.274;2022-11-13T01:21:25;7.00;99.90
36442;DHT22;64346;50.820;16.274;2022-11-13T01:23:52;7.00;99.90
36442;DHT22;64346;50.820;16.274;2022-11-13T01:26:22;7.00;99.90
36442;DHT22;64346;50.820;16.274;2022-11-13T01:28:56;7.00;99.90
36442;DHT22;64346;50.820;16.274;2022-11-13T01:31:28;7.10;99.90
36442;DHT22;64346;50.820;16.274;2022-11-13T01:33:57;7.10;99.90
36442;DHT22;64346;50.820;16.274;2022-11-13T01:36:26;7.10;99.90
36442;DHT22;64346;50.820;16.274;2022-11-13T01:38:54;7.00;99.90
36442;DHT22;64346;50.820;16.274;2022-11-13T01:41:28;6.90;99.90
36442;DHT22;64346;50.820;16.274;2022-11-13T01:43:58;6.90;99.90
36442;DHT22;64346;50.820;16.274;2022-11-13T01:46:37;7.00;99.90
36442;DHT22;64346;50.820;16.274;2022-11-13T01:54:11;7.00;99.90
36442;DHT22;64346;50.820;16.274;2022-11-13T01:56:43;7.00;99.90
36442;DHT22;64346;50.820;16.274;2022-11-13T01:59:16;6.90;99.90
36442;DHT22;64346;50.820;16.274;2022-11-13T02:01:44;6.90;99.90
36442;DHT22;64346;50.820;16.274;2022-11-13T02:04:14;6.90;99.90
36442;DHT22;64346;50.820;16.274;2022-11-13T02:06:54;6.90;99.90
36442;DHT22;64346;50.820;16.274;2022-11-13T02:09:25;6.90;99.90
36442;DHT22;64346;50.820;16.274;2022-11-13T02:11:56;6.90;99.90
36442;DHT22;64346;50.820;16.274;2022-11-13T02:14:27;6.90;99.90
36442;DHT22;64346;50.820;16.274;2022-11-13T02:16:59;6.90;99.90
36442;DHT22;64346;50.820;16.274;2022-11-13T02:19:38;6.90;99.90
36442;DHT22;64346;50.820;16.274;2022-11-13T02:22:29;6.80;99.90
36442;DHT22;64346;50.820;16.274;2022-11-13T02:25:01;6.80;99.90
36442;DHT22;64346;50.820;16.274;2022-11-13T02:27:41;6.80;99.90
36442;DHT22;64346;50.820;16.274;2022-11-13T02:30:18;6.80;99.90
36442;DHT22;64346;50.820;16.274;2022-11-13T02:32:54;6.80;99.90
36442;DHT22;64346;50.820;16.274;2022-11-13T02:35:32;6.80;99.90
36442;DHT22;64346;50.820;16.274;2022-11-13T02:38:03;6.80;99.90
36442;DHT22;64346;50.820;16.274;2022-11-13T02:40:32;6.80;99.90
36442;DHT22;64346;50.820;16.274;2022-11-13T02:42:59;6.80;99.90
36442;DHT22;64346;50.820;16.274;2022-11-13T02:45:26;6.80;99.90
36442;DHT22;64346;50.820;16.274;2022-11-13T02:47:54;6.90;99.90
36442;DHT22;64346;50.820;16.274;2022-11-13T02:50:23;6.90;99.90
36442;DHT22;64346;50.820;16.274;2022-11-13T02:52:50;7.00;99.90
36442;DHT22;64346;50.820;16.274;2022-11-13T02:55:18;7.00;99.90
36442;DHT22;64346;50.820;16.274;2022-11-13T02:57:45;7.10;99.90
36442;DHT22;64346;50.820;16.274;2022-11-13T03:00:12;7.10;99.90
36442;DHT22;64346;50.820;16.274;2022-11-13T03:02:40;7.10;99.90
36442;DHT22;64346;50.820;16.274;2022-11-13T03:05:08;7.10;99.90
36442;DHT22;64346;50.820;16.274;2022-11-13T03:07:39;7.00;99.90
36442;DHT22;64346;50.820;16.274;2022-11-13T03:10:10;7.00;99.90
36442;DHT22;64346;50.820;16.274;2022-11-13T03:12:39;6.90;99.90
36442;DHT22;64346;50.820;16.274;2022-11-13T03:15:07;7.00;99.90
36442;DHT22;64346;50.820;16.274;2022-11-13T03:17:34;6.90;99.90
36442;DHT22;64346;50.820;16.274;2022-11-13T03:20:03;6.90;99.90
36442;DHT22;64346;50.820;16.274;2022-11-13T03:22:30;6.90;99.90
36442;DHT22;64346;50.820;16.274;2022-11-13T03:24:58;6.90;99.90
36442;DHT22;64346;50.820;16.274;2022-11-13T03:27:25;6.90;99.90
36442;DHT22;64346;50.820;16.274;2022-11-13T03:29:54;6.90;99.90
36442;DHT22;64346;50.820;16.274;2022-11-13T03:32:22;6.90;99.90
36442;DHT22;64346;50.820;16.274;2022-11-13T03:34:51;6.90;99.90
36442;DHT22;64346;50.820;16.274;2022-11-13T03:37:19;6.90;99.90
36442;DHT22;64346;50.820;16.274;2022-11-13T03:39:46;6.90;99.90
36442;DHT22;64346;50.820;16.274;2022-11-13T03:42:16;6.90;99.90
36442;DHT22;64346;50.820;16.274;2022-11-13T03:44:43;6.70;99.90
36442;DHT22;64346;50.820;16.274;2022-11-13T03:47:10;6.70;99.90
36442;DHT22;64346;50.820;16.274;2022-11-13T03:49:37;6.60;99.90
36442;DHT22;64346;50.820;16.274;2022-11-13T03:52:05;6.50;99.90
36442;DHT22;64346;50.820;16.274;2022-11-13T03:54:32;6.40;99.90
36442;DHT22;64346;50.820;16.274;2022-11-13T03:56:59;6.30;99.90
36442;DHT22;64346;50.820;16.274;2022-11-13T03:59:31;6.20;99.90
36442;DHT22;64346;50.820;16.274;2022-11-13T04:01:58;6.10;99.90
36442;DHT22;64346;50.820;16.274;2022-11-13T04:04:25;6.00;99.90
36442;DHT22;64346;50.820;16.274;2022-11-13T04:06:53;5.90;99.90
36442;DHT22;64346;50.820;16.274;2022-11-13T04:09:20;5.80;99.90
36442;DHT22;64346;50.820;16.274;2022-11-13T04:11:48;5.70;99.90
36442;DHT22;64346;50.820;16.274;2022-11-13T04:14:15;5.60;99.90
36442;DHT22;64346;50.820;16.274;2022-11-13T04:16:45;5.50;99.90
36442;DHT22;64346;50.820;16.274;2022-11-13T04:19:12;5.40;99.90
36442;DHT22;64346;50.820;16.274;2022-11-13T04:21:39;5.20;99.90
36442;DHT22;64346;50.820;16.274;2022-11-13T04:24:06;5.10;99.90
36442;DHT22;64346;50.820;16.274;2022-11-13T04:26:33;5.10;99.90
36442;DHT22;64346;50.820;16.274;2022-11-13T04:29:00;5.00;99.90
36442;DHT22;64346;50.820;16.274;2022-11-13T04:31:28;5.00;99.90
36442;DHT22;64346;50.820;16.274;2022-11-13T04:33:55;4.90;99.90
36442;DHT22;64346;50.820;16.274;2022-11-13T04:36:22;4.90;99.90
36442;DHT22;64346;50.820;16.274;2022-11-13T04:38:49;4.90;99.90
36442;DHT22;64346;50.820;16.274;2022-11-13T04:41:19;4.80;99.90
36442;DHT22;64346;50.820;16.274;2022-11-13T04:43:48;4.80;99.90
36442;DHT22;64346;50.820;16.274;2022-11-13T04:46:16;4.80;99.90
36442;DHT22;64346;50.820;16.274;2022-11-13T04:48:43;4.80;99.90
36442;DHT22;64346;50.820;16.274;2022-11-13T04:51:12;4.80;99.90
36442;DHT22;64346;50.820;16.274;2022-11-13T04:53:42;4.80;99.90
36442;DHT22;64346;50.820;16.274;2022-11-13T04:56:09;4.80;99.90
36442;DHT22;64346;50.820;16.274;2022-11-13T04:58:36;4.80;99.90
36442;DHT22;64346;50.820;16.274;2022-11-13T05:01:04;4.80;99.90
36442;DHT22;64346;50.820;16.274;2022-11-13T05:03:31;4.80;99.90
36442;DHT22;64346;50.820;16.274;2022-11-13T05:06:09;4.80;99.90
36442;DHT22;64346;50.820;16.274;2022-11-13T05:08:36;4.80;99.90
36442;DHT22;64346;50.820;16.274;2022-11-13T05:11:03;4.80;99.90
36442;DHT22;64346;50.820;16.274;2022-11-13T05:13:33;4.70;99.90
36442;DHT22;64346;50.820;16.274;2022-11-13T05:16:08;4.70;99.90
36442;DHT22;64346;50.820;16.274;2022-11-13T05:18:40;4.70;99.90
36442;DHT22;64346;50.820;16.274;2022-11-13T05:21:08;4.70;99.90
36442;DHT22;64346;50.820;16.274;2022-11-13T05:23:36;4.70;99.90
36442;DHT22;64346;50.820;16.274;2022-11-13T05:26:08;4.70;99.90
36442;DHT22;64346;50.820;16.274;2022-11-13T05:28:37;4.70;99.90
36442;DHT22;64346;50.820;16.274;2022-11-13T05:31:08;4.70;99.90
36442;DHT22;64346;50.820;16.274;2022-11-13T05:33:36;4.70;99.90
36442;DHT22;64346;50.820;16.274;2022-11-13T05:36:06;4.70;99.90
36442;DHT22;64346;50.820;16.274;2022-11-13T05:38:36;4.70;99.90
36442;DHT22;64346;50.820;16.274;2022-11-13T05:41:05;4.70;99.90
36442;DHT22;64346;50.820;16.274;2022-11-13T05:43:34;4.60;99.90
36442;DHT22;64346;50.820;16.274;2022-11-13T05:46:10;4.70;99.90
36442;DHT22;64346;50.820;16.274;2022-11-13T05:48:39;4.60;99.90
36442;DHT22;64346;50.820;16.274;2022-11-13T05:51:13;4.60;99.90
36442;DHT22;64346;50.820;16.274;2022-11-13T05:53:41;4.60;99.90
36442;DHT22;64346;50.820;16.274;2022-11-13T05:56:20;4.60;99.90
36442;DHT22;64346;50.820;16.274;2022-11-13T05:58:49;4.60;99.90
36442;DHT22;64346;50.820;16.274;2022-11-13T06:01:19;4.60;99.90
36442;DHT22;64346;50.820;16.274;2022-11-13T06:03:51;4.60;99.90
36442;DHT22;64346;50.820;16.274;2022-11-13T06:06:20;4.70;99.90
36442;DHT22;64346;50.820;16.274;2022-11-13T06:08:48;4.60;99.90
36442;DHT22;64346;50.820;16.274;2022-11-13T06:11:20;4.70;99.90
36442;DHT22;64346;50.820;16.274;2022-11-13T06:13:48;4.80;99.90
36442;DHT22;64346;50.820;16.274;2022-11-13T06:16:20;4.80;99.90
36442;DHT22;64346;50.820;16.274;2022-11-13T06:18:49;4.80;99.90
36442;DHT22;64346;50.820;16.274;2022-11-13T06:21:20;4.90;99.90
36442;DHT22;64346;50.820;16.274;2022-11-13T06:23:50;5.00;99.90
36442;DHT22;64346;50.820;16.274;2022-11-13T06:26:20;5.10;99.90
36442;DHT22;64346;50.820;16.274;2022-11-13T06:28:48;5.10;99.90
36442;DHT22;64346;50.820;16.274;2022-11-13T06:31:30;5.20;99.90
36442;DHT22;64346;50.820;16.274;2022-11-13T06:34:01;5.10;99.90
36442;DHT22;64346;50.820;16.274;2022-11-13T06:36:34;5.20;99.90
36442;DHT22;64346;50.820;16.274;2022-11-13T06:39:05;5.70;99.90
36442;DHT22;64346;50.820;16.274;2022-11-13T06:41:32;5.90;99.90
36442;DHT22;64346;50.820;16.274;2022-11-13T06:44:00;6.00;99.90
36442;DHT22;64346;50.820;16.274;2022-11-13T06:46:30;6.00;99.90
36442;DHT22;64346;50.820;16.274;2022-11-13T06:48:57;6.00;99.90
36442;DHT22;64346;50.820;16.274;2022-11-13T06:51:27;6.20;99.90
36442;DHT22;64346;50.820;16.274;2022-11-13T06:53:55;6.20;99.90
36442;DHT22;64346;50.820;16.274;2022-11-13T06:56:25;6.40;99.90
36442;DHT22;64346;50.820;16.274;2022-11-13T06:58:53;6.50;99.90
36442;DHT22;64346;50.820;16.274;2022-11-13T07:01:23;6.60;99.90
36442;DHT22;64346;50.820;16.274;2022-11-13T07:03:50;6.80;99.90
36442;DHT22;64346;50.820;16.274;2022-11-13T07:06:23;7.10;99.90
36442;DHT22;64346;50.820;16.274;2022-11-13T07:08:52;7.60;99.90
36442;DHT22;64346;50.820;16.274;2022-11-13T07:11:22;8.60;99.90
36442;DHT22;64346;50.820;16.274;2022-11-13T07:13:49;10.60;99.90
36442;DHT22;64346;50.820;16.274;2022-11-13T07:16:19;13.60;99.90
36442;DHT22;64346;50.820;16.274;2022-11-13T07:18:55;16.90;96.30
36442;DHT22;64346;50.820;16.274;2022-11-13T07:21:24;20.00;84.00
36442;DHT22;64346;50.820;16.274;2022-11-13T07:23:52;22.60;72.30
36442;DHT22;64346;50.820;16.274;2022-11-13T07:26:19;24.80;62.50
36442;DHT22;64346;50.820;16.274;2022-11-13T07:28:47;26.50;56.80
36442;DHT22;64346;50.820;16.274;2022-11-13T07:31:16;28.00;53.60
36442;DHT22;64346;50.820;16.274;2022-11-13T07:33:46;29.20;51.70
36442;DHT22;64346;50.820;16.274;2022-11-13T07:36:13;30.40;49.40
36442;DHT22;64346;50.820;16.274;2022-11-13T07:38:43;31.40;47.70
36442;DHT22;64346;50.820;16.274;2022-11-13T07:41:12;32.30;46.80
36442;DHT22;64346;50.820;16.274;2022-11-13T07:43:42;33.00;45.10
36442;DHT22;64346;50.820;16.274;2022-11-13T07:46:09;33.70;44.50
36442;DHT22;64346;50.820;16.274;2022-11-13T07:48:37;34.70;43.40
36442;DHT22;64346;50.820;16.274;2022-11-13T07:51:04;35.60;42.10
36442;DHT22;64346;50.820;16.274;2022-11-13T07:53:34;36.50;41.40
36442;DHT22;64346;50.820;16.274;2022-11-13T07:56:02;37.20;40.40
36442;DHT22;64346;50.820;16.274;2022-11-13T07:58:32;37.70;39.60
36442;DHT22;64346;50.820;16.274;2022-11-13T08:01:04;38.20;39.00
36442;DHT22;64346;50.820;16.274;2022-11-13T08:03:31;38.70;38.60
36442;DHT22;64346;50.820;16.274;2022-11-13T08:06:04;38.80;38.10
36442;DHT22;64346;50.820;16.274;2022-11-13T08:08:32;38.80;38.20
36442;DHT22;64346;50.820;16.274;2022-11-13T08:11:05;39.00;37.90
36442;DHT22;64346;50.820;16.274;2022-11-13T08:13:35;38.80;37.70
36442;DHT22;64346;50.820;16.274;2022-11-13T08:16:03;37.20;38.30
36442;DHT22;64346;50.820;16.274;2022-11-13T08:18:33;35.30;39.50
36442;DHT22;64346;50.820;16.274;2022-11-13T08:21:06;34.00;40.40
36442;DHT22;64346;50.820;16.274;2022-11-13T08:23:41;33.30;41.10
36442;DHT22;64346;50.820;16.274;2022-11-13T08:26:11;33.60;41.10
36442;DHT22;64346;50.820;16.274;2022-11-13T08:28:39;33.70;41.20
36442;DHT22;64346;50.820;16.274;2022-11-13T08:31:12;33.60;41.30
36442;DHT22;64346;50.820;16.274;2022-11-13T08:33:40;32.70;41.80
36442;DHT22;64346;50.820;16.274;2022-11-13T08:36:11;31.70;42.80
36442;DHT22;64346;50.820;16.274;2022-11-13T08:38:38;31.20;43.60
36442;DHT22;64346;50.820;16.274;2022-11-13T08:41:05;30.80;43.80
36442;DHT22;64346;50.820;16.274;2022-11-13T08:43:35;30.60;44.30
36442;DHT22;64346;50.820;16.274;2022-11-13T08:46:05;30.50;44.20
36442;DHT22;64346;50.820;16.274;2022-11-13T08:48:32;29.60;44.80
36442;DHT22;64346;50.820;16.274;2022-11-13T08:51:00;28.50;45.90
36442;DHT22;64346;50.820;16.274;2022-11-13T08:53:27;26.70;47.80
36442;DHT22;64346;50.820;16.274;2022-11-13T08:55:59;25.50;49.10
36442;DHT22;64346;50.820;16.274;2022-11-13T08:58:26;23.70;51.80
36442;DHT22;64346;50.820;16.274;2022-11-13T09:01:02;23.00;53.30
36442;DHT22;64346;50.820;16.274;2022-11-13T09:03:29;22.70;53.40
36442;DHT22;64346;50.820;16.274;2022-11-13T09:05:57;22.60;53.80
36442;DHT22;64346;50.820;16.274;2022-11-13T09:08:24;22.60;53.60
36442;DHT22;64346;50.820;16.274;2022-11-13T09:10:52;22.70;53.40
36442;DHT22;64346;50.820;16.274;2022-11-13T09:13:19;22.30;54.00
36442;DHT22;64346;50.820;16.274;2022-11-13T09:15:46;21.90;54.90
36442;DHT22;64346;50.820;16.274;2022-11-13T09:18:14;21.60;55.10
36442;DHT22;64346;50.820;16.274;2022-11-13T09:20:41;21.40;56.00
36442;DHT22;64346;50.820;16.274;2022-11-13T09:23:08;21.80;55.20
36442;DHT22;64346;50.820;16.274;2022-11-13T09:25:36;22.50;54.20
36442;DHT22;64346;50.820;16.274;2022-11-13T09:28:07;23.10;53.10
36442;DHT22;64346;50.820;16.274;2022-11-13T09:30:37;23.10;53.00
36442;DHT22;64346;50.820;16.274;2022-11-13T09:33:05;23.60;52.80
36442;DHT22;64346;50.820;16.274;2022-11-13T09:35:32;23.80;52.00
36442;DHT22;64346;50.820;16.274;2022-11-13T09:43:55;25.30;49.70
36442;DHT22;64346;50.820;16.274;2022-11-13T09:49:12;26.90;48.20
36442;DHT22;64346;50.820;16.274;2022-11-13T09:51:41;27.50;47.30
36442;DHT22;64346;50.820;16.274;2022-11-13T09:54:13;28.00;46.90
36442;DHT22;64346;50.820;16.274;2022-11-13T09:59:28;31.20;44.00
36442;DHT22;64346;50.820;16.274;2022-11-13T10:12:50;39.30;38.10
36442;DHT22;64346;50.820;16.274;2022-11-13T10:15:19;41.20;37.20
36442;DHT22;64346;50.820;16.274;2022-11-13T10:18:15;42.50;35.90
36442;DHT22;64346;50.820;16.274;2022-11-13T10:20:50;43.40;35.40
36442;DHT22;64346;50.820;16.274;2022-11-13T10:23:31;43.30;35.10
36442;DHT22;64346;50.820;16.274;2022-11-13T10:26:20;42.50;34.90
36442;DHT22;64346;50.820;16.274;2022-11-13T10:28:55;40.60;35.50
36442;DHT22;64346;50.820;16.274;2022-11-13T10:31:24;38.30;35.90
36442;DHT22;64346;50.820;16.274;2022-11-13T10:33:53;36.90;37.10
36442;DHT22;64346;50.820;16.274;2022-11-13T10:36:48;37.20;37.00
36442;DHT22;64346;50.820;16.274;2022-11-13T10:39:17;37.10;36.90
36442;DHT22;64346;50.820;16.274;2022-11-13T10:41:51;38.20;36.40
36442;DHT22;64346;50.820;16.274;2022-11-13T10:44:39;38.00;36.40
36442;DHT22;64346;50.820;16.274;2022-11-13T10:47:18;38.50;36.40
36442;DHT22;64346;50.820;16.274;2022-11-13T10:50:23;38.70;36.10
36442;DHT22;64346;50.820;16.274;2022-11-13T10:52:53;36.70;36.90
36442;DHT22;64346;50.820;16.274;2022-11-13T10:57:57;36.80;37.20
36442;DHT22;64346;50.820;16.274;2022-11-13T11:00:36;35.40;38.30
36442;DHT22;64346;50.820;16.274;2022-11-13T11:03:07;35.60;38.40
36442;DHT22;64346;50.820;16.274;2022-11-13T11:05:35;36.20;38.10
36442;DHT22;64346;50.820;16.274;2022-11-13T11:08:07;36.60;37.60
36442;DHT22;64346;50.820;16.274;2022-11-13T11:10:38;34.10;38.40
36442;DHT22;64346;50.820;16.274;2022-11-13T11:13:11;30.00;41.50
36442;DHT22;64346;50.820;16.274;2022-11-13T11:16:05;26.50;45.40
36442;DHT22;64346;50.820;16.274;2022-11-13T11:18:41;23.70;49.60
36442;DHT22;64346;50.820;16.274;2022-11-13T11:21:24;21.70;52.60
36442;DHT22;64346;50.820;16.274;2022-11-13T11:24:17;20.10;56.00
36442;DHT22;64346;50.820;16.274;2022-11-13T11:32:08;17.90;61.30
36442;DHT22;64346;50.820;16.274;2022-11-13T11:34:49;17.30;63.30
36442;DHT22;64346;50.820;16.274;2022-11-13T11:37:32;16.50;64.80
36442;DHT22;64346;50.820;16.274;2022-11-13T11:40:11;15.80;67.10
36442;DHT22;64346;50.820;16.274;2022-11-13T11:43:09;15.50;68.10
36442;DHT22;64346;50.820;16.274;2022-11-13T11:45:48;15.00;69.70
36442;DHT22;64346;50.820;16.274;2022-11-13T11:48:17;14.80;70.80
36442;DHT22;64346;50.820;16.274;2022-11-13T11:54:11;14.30;72.50
36442;DHT22;64346;50.820;16.274;2022-11-13T12:05:26;13.70;74.70
36442;DHT22;64346;50.820;16.274;2022-11-13T12:07:58;13.60;75.80
36442;DHT22;64346;50.820;16.274;2022-11-13T12:13:31;13.50;75.60
36442;DHT22;64346;50.820;16.274;2022-11-13T12:24:00;13.20;75.30
36442;DHT22;64346;50.820;16.274;2022-11-13T12:26:37;13.10;75.30
36442;DHT22;64346;50.820;16.274;2022-11-13T12:32:10;13.00;75.20
36442;DHT22;64346;50.820;16.274;2022-11-13T12:34:46;13.00;75.90
36442;DHT22;64346;50.820;16.274;2022-11-13T12:37:31;12.90;76.00
36442;DHT22;64346;50.820;16.274;2022-11-13T12:48:32;12.90;77.50
36442;DHT22;64346;50.820;16.274;2022-11-13T12:51:06;12.80;77.40
36442;DHT22;64346;50.820;16.274;2022-11-13T13:05:17;12.60;82.60
36442;DHT22;64346;50.820;16.274;2022-11-13T13:10:28;12.70;83.90
36442;DHT22;64346;50.820;16.274;2022-11-13T13:13:23;12.70;82.20
36442;DHT22;64346;50.820;16.274;2022-11-13T13:15:59;12.70;82.30
36442;DHT22;64346;50.820;16.274;2022-11-13T13:18:40;12.70;83.00
36442;DHT22;64346;50.820;16.274;2022-11-13T13:21:14;12.70;83.60
36442;DHT22;64346;50.820;16.274;2022-11-13T13:23:50;12.70;84.10
36442;DHT22;64346;50.820;16.274;2022-11-13T13:26:27;12.60;84.80
36442;DHT22;64346;50.820;16.274;2022-11-13T13:29:04;12.50;85.00
36442;DHT22;64346;50.820;16.274;2022-11-13T13:40:44;12.10;86.60
36442;DHT22;64346;50.820;16.274;2022-11-13T13:46:29;12.00;87.60
36442;DHT22;64346;50.820;16.274;2022-11-13T13:49:06;12.00;85.90
36442;DHT22;64346;50.820;16.274;2022-11-13T13:52:01;12.10;85.40
36442;DHT22;64346;50.820;16.274;2022-11-13T13:54:31;12.10;85.70
36442;DHT22;64346;50.820;16.274;2022-11-13T13:57:00;12.10;85.90
36442;DHT22;64346;50.820;16.274;2022-11-13T13:59:37;12.20;85.00
36442;DHT22;64346;50.820;16.274;2022-11-13T14:02:14;12.30;85.00
36442;DHT22;64346;50.820;16.274;2022-11-13T14:04:47;12.30;84.40
36442;DHT22;64346;50.820;16.274;2022-11-13T14:07:28;12.30;84.10
36442;DHT22;64346;50.820;16.274;2022-11-13T14:12:43;12.20;85.00
36442;DHT22;64346;50.820;16.274;2022-11-13T14:15:31;12.20;84.80
36442;DHT22;64346;50.820;16.274;2022-11-13T14:18:11;12.20;85.50
36442;DHT22;64346;50.820;16.274;2022-11-13T14:23:31;12.20;85.70
36442;DHT22;64346;50.820;16.274;2022-11-13T14:26:00;12.10;85.70
36442;DHT22;64346;50.820;16.274;2022-11-13T14:28:31;12.10;86.40
36442;DHT22;64346;50.820;16.274;2022-11-13T14:31:05;12.00;87.20
36442;DHT22;64346;50.820;16.274;2022-11-13T14:33:39;12.00;87.90
36442;DHT22;64346;50.820;16.274;2022-11-13T14:36:08;12.00;88.30
36442;DHT22;64346;50.820;16.274;2022-11-13T14:38:40;11.90;88.10
36442;DHT22;64346;50.820;16.274;2022-11-13T14:41:27;11.90;88.40
36442;DHT22;64346;50.820;16.274;2022-11-13T14:43:55;11.90;88.80
36442;DHT22;64346;50.820;16.274;2022-11-13T14:46:30;11.90;89.20
36442;DHT22;64346;50.820;16.274;2022-11-13T14:48:57;11.90;89.70
36442;DHT22;64346;50.820;16.274;2022-11-13T14:51:29;11.90;90.10
36442;DHT22;64346;50.820;16.274;2022-11-13T14:54:04;11.80;90.20
36442;DHT22;64346;50.820;16.274;2022-11-13T14:56:36;11.80;90.70
36442;DHT22;64346;50.820;16.274;2022-11-13T14:59:23;11.80;91.00
36442;DHT22;64346;50.820;16.274;2022-11-13T15:01:57;11.70;91.50
36442;DHT22;64346;50.820;16.274;2022-11-13T15:04:24;11.70;91.80
36442;DHT22;64346;50.820;16.274;2022-11-13T15:06:52;11.60;92.10
36442;DHT22;64346;50.820;16.274;2022-11-13T15:09:22;11.60;92.40
36442;DHT22;64346;50.820;16.274;2022-11-13T15:11:50;11.60;92.70
36442;DHT22;64346;50.820;16.274;2022-11-13T15:14:18;11.50;93.10
36442;DHT22;64346;50.820;16.274;2022-11-13T15:16:47;11.40;93.50
36442;DHT22;64346;50.820;16.274;2022-11-13T15:19:25;11.30;94.20
36442;DHT22;64346;50.820;16.274;2022-11-13T15:21:57;11.20;95.00
36442;DHT22;64346;50.820;16.274;2022-11-13T15:24:44;11.10;95.80
36442;DHT22;64346;50.820;16.274;2022-11-13T15:27:14;11.00;96.80
36442;DHT22;64346;50.820;16.274;2022-11-13T15:29:42;11.00;97.70
36442;DHT22;64346;50.820;16.274;2022-11-13T15:32:11;10.90;98.30
36442;DHT22;64346;50.820;16.274;2022-11-13T15:34:39;10.80;99.10
36442;DHT22;64346;50.820;16.274;2022-11-13T15:37:15;10.80;99.70
36442;DHT22;64346;50.820;16.274;2022-11-13T15:39:45;10.70;99.90
36442;DHT22;64346;50.820;16.274;2022-11-13T15:42:16;10.70;99.90
36442;DHT22;64346;50.820;16.274;2022-11-13T15:44:44;10.60;99.90
36442;DHT22;64346;50.820;16.274;2022-11-13T15:47:34;10.60;99.90
36442;DHT22;64346;50.820;16.274;2022-11-13T15:50:03;10.50;99.90
36442;DHT22;64346;50.820;16.274;2022-11-13T15:52:45;10.50;99.90
36442;DHT22;64346;50.820;16.274;2022-11-13T15:55:28;10.40;99.90
36442;DHT22;64346;50.820;16.274;2022-11-13T15:57:57;10.30;99.90
36442;DHT22;64346;50.820;16.274;2022-11-13T16:00:28;10.40;99.90
36442;DHT22;64346;50.820;16.274;2022-11-13T16:02:56;10.30;99.90
36442;DHT22;64346;50.820;16.274;2022-11-13T16:05:26;10.30;99.90
36442;DHT22;64346;50.820;16.274;2022-11-13T16:07:55;10.20;99.90
36442;DHT22;64346;50.820;16.274;2022-11-13T16:10:25;10.20;99.90
36442;DHT22;64346;50.820;16.274;2022-11-13T16:12:52;10.10;99.90
36442;DHT22;64346;50.820;16.274;2022-11-13T16:15:20;10.10;99.90
36442;DHT22;64346;50.820;16.274;2022-11-13T16:17:54;10.10;99.90
36442;DHT22;64346;50.820;16.274;2022-11-13T16:20:23;10.00;99.90
36442;DHT22;64346;50.820;16.274;2022-11-13T16:22:50;10.00;99.90
36442;DHT22;64346;50.820;16.274;2022-11-13T16:25:21;10.00;99.90
36442;DHT22;64346;50.820;16.274;2022-11-13T16:27:50;10.00;99.90
36442;DHT22;64346;50.820;16.274;2022-11-13T16:30:21;10.00;99.90
36442;DHT22;64346;50.820;16.274;2022-11-13T16:32:51;9.90;99.90
36442;DHT22;64346;50.820;16.274;2022-11-13T16:35:19;9.90;99.90
36442;DHT22;64346;50.820;16.274;2022-11-13T16:37:49;9.90;99.90
36442;DHT22;64346;50.820;16.274;2022-11-13T16:40:24;9.90;99.90
36442;DHT22;64346;50.820;16.274;2022-11-13T16:42:54;9.80;99.90
36442;DHT22;64346;50.820;16.274;2022-11-13T16:45:21;9.80;99.90
36442;DHT22;64346;50.820;16.274;2022-11-13T16:47:51;9.80;99.90
36442;DHT22;64346;50.820;16.274;2022-11-13T16:50:25;9.70;99.90
36442;DHT22;64346;50.820;16.274;2022-11-13T16:52:57;9.70;99.90
36442;DHT22;64346;50.820;16.274;2022-11-13T16:55:24;9.80;99.90
36442;DHT22;64346;50.820;16.274;2022-11-13T16:57:57;9.80;99.90
36442;DHT22;64346;50.820;16.274;2022-11-13T17:00:24;9.80;99.90
36442;DHT22;64346;50.820;16.274;2022-11-13T17:02:52;9.80;99.90
36442;DHT22;64346;50.820;16.274;2022-11-13T17:05:23;9.80;99.90
36442;DHT22;64346;50.820;16.274;2022-11-13T17:07:56;9.70;99.90
36442;DHT22;64346;50.820;16.274;2022-11-13T17:10:27;9.60;99.90
36442;DHT22;64346;50.820;16.274;2022-11-13T17:12:59;9.50;99.90
36442;DHT22;64346;50.820;16.274;2022-11-13T17:15:30;9.40;99.90
36442;DHT22;64346;50.820;16.274;2022-11-13T17:17:58;9.30;99.90
36442;DHT22;64346;50.820;16.274;2022-11-13T17:20:51;9.30;99.90
36442;DHT22;64346;50.820;16.274;2022-11-13T17:23:20;9.30;99.90
36442;DHT22;64346;50.820;16.274;2022-11-13T17:25:48;9.30;99.90
36442;DHT22;64346;50.820;16.274;2022-11-13T17:28:16;9.30;99.90
36442;DHT22;64346;50.820;16.274;2022-11-13T17:31:09;9.30;99.90